Airfield :
LOGIN :

Register | Disclaimer

   EN    FR    IT 

 










Legend :    VFR   Marginal VFR   IFR   Intensive IFR   Very Intensive IFR
Visi :
Ceiling :
>= 8 km
>= 3000ft
5 to 8 km
1000 to 3000 ft
1500m to 5 km
500 to 1000 ft
800 to 1500m
200 to 500 ft
< 800m
< 200 ft
Symbols :   Thunderstorms  Fog  Heavy snow  Heavy precipitations  Wind > 20 kt
SIGMETs :     Misc.  Thunderstorms  Icing  Turbulence  Mountain Waves  Volcanic Ashes






- Airport Elevation : 287 ft


LFRL - Lanveoc Poulmic

CURRENT METAR :
  • 281130Z AUTO 30017KT 9999 SCT032 12/07 Q1013 TEMPO 30015G25KT 2000 SHRA BKN015CB

EXPIRED METARs :
  • 281100Z AUTO 30014KT 9999 FEW032 12/08 Q1013 TEMPO 30015G30KT 3000 SHRA SCT015CB
  • 281030Z AUTO 31015KT 9999 FEW030 11/07 Q1013 TEMPO 30015G30KT 3000 SHRA SCT015CB
  • 281000Z AUTO 30014KT 9999 FEW043/// //////TCU 10/07 Q1012 TEMPO 30015G30KT 1000 TSGS SCT015CB
  • 280930Z AUTO 28015G31KT 250V310 9000 1600 +RA FEW026/// BKN033/// BKN041/// ///CB 10/07 Q1012 TEMPO 1000 TSGS
  • 280900Z AUTO 28015KT 8000 3300 R23/1300D RA FEW030/// BKN060/// BKN092/// //////CB 10/07 Q1012 TEMPO 30015G30KT 1000 TSGS

TAF TAF LFRL
Valid from the 28 at 12:00 until the 29 at 12:00 UTC


281100Z 2812/2912 31015KT 9999 BKN030
TEMPO 2812/2816 30015G25KT 3000 SHRA BKN015TCU
PROB30
TEMPO 2812/2815 30015G25KT 2000 SHRA BKN015CB
PROB30 2900/2906 4000 BR
BECMG 2902/2904 30005KT



MET'MAP, your aeronautical weather chart ! - Copyright ORBIFLY December 2007 - Disclaimer

ORBIFLY MET'MAP TEAM :

Programming & Development : Alexandra Zaïnal
Original concept : Baudouin d'Aumeries
Technical & hardware support : Manuel Goepfert
Assistance : Marc-Olivier Méhu




SOURCES & CREDITS :

   NOAA